Flight Track Log - Related Links

Times and Time Zones

All times are in EDT time to prevent confusion due to time zone crossing. See the N775NC flight status page for this flight to view local times or setup timezone preferences in your user account.

Time Position Orientation Groundspeed Altitude Reporting Facility
EDT Latitude Longitude Course Direction KTS MPH feet Rate Location/Type
Sun 07:09:20 AM 35.4311 -82.6650 197° South 266 306 7,300  Level Atlanta Center
Sun 07:10:20 AM 35.3625 -82.6914 197° South 281 323 9,600 1,600 Climbing Atlanta Center
Sun 07:11:20 AM 35.2878 -82.7386 207° Southwest 297 342 10,500 6,200 Climbing Atlanta Center
Sun 07:12:20 AM 35.2114 -82.8033 215° Southwest 313 360 22,000 2,250 Climbing Atlanta Center
Sun 07:13:20 AM 35.1389 -82.8703 217° Southwest 348 400 15,000 -2,500 Descending Atlanta Center
Sun 07:14:20 AM 35.0583 -82.9425 216° Southwest 365 420 17,000 1,800 Climbing Atlanta Center
Sun 07:15:20 AM 34.9756 -83.0197 217° Southwest 370 426 18,600 1,250 Climbing Atlanta Center
Sun 07:16:20 AM 34.8739 -83.1019 214° Southwest 391 450 19,500 1,300 Climbing Atlanta Center
Sun 07:17:20 AM 34.7786 -83.1942 218° Southwest 432 497 21,200 1,300 Climbing Atlanta Center
Sun 07:18:20 AM 34.6936 -83.2758 218° Southwest 438 504 22,100 400 Climbing Atlanta Center
Sun 07:19:20 AM 34.6000 -83.3600 217° Southwest 431 496 22,000 -550 Descending Atlanta Center
Sun 07:20:20 AM 34.5108 -83.4489 219° Southwest 431 496 21,000 -2,050 Descending Atlanta Center
Sun 07:21:20 AM 34.4236 -83.5350 219° Southwest 423 487 17,900 -2,900 Descending Atlanta Center
Sun 07:22:20 AM 34.3425 -83.6186 220° Southwest 407 468 15,200 -2,650 Descending Atlanta Center
Sun 07:23:20 AM 34.2572 -83.6994 218° Southwest 394 453 12,600 -1,600 Descending Atlanta Center
Sun 07:24:20 AM 34.1800 -83.7600 213° Southwest 358 412 12,000 -300 Descending Atlanta Center
Sun 07:25:20 AM 34.1050 -83.8181 213° Southwest 313 360 12,000 -100 Level Atlanta Center
Sun 07:26:20 AM 34.0489 -83.8833 224° Southwest 291 335 11,800 -1,000 Descending Atlanta Center
Sun 07:27:38 AM 33.9833 -83.9667 227° Southwest 262 302 9,700 -1,217 Descending Atlanta TRACON
Sun 07:28:38 AM 33.9333 -84.0333 228° Southwest 253 291 9,000 -800 Descending Atlanta TRACON
Sun 07:29:38 AM 33.8667 -84.0833 212° Southwest 254 292 8,100 -1,235 Descending Atlanta TRACON
Sun 07:30:20 AM 33.8297 -84.1139 214° Southwest 260 299 6,900 -1,631 Descending Atlanta Center
Sun 07:31:21 AM 33.7669 -84.1561 209° Southwest 266 306 5,300 -1,500 Descending Atlanta Center
Sun 07:32:44 AM 33.6833 -84.2167 211° Southwest 250 288 3,300 -1,007 Descending Atlanta TRACON
Sun 07:33:44 AM 33.6500 -84.2667 231° Southwest 215 247 2,900 -550 Descending Atlanta TRACON
Sun 07:34:44 AM 33.6500 -84.3333 270° West 176 203 2,200 -700 Descending Atlanta TRACON
Sun 07:35:44 AM 33.6500 -84.3833 270° West 133 153 1,500 -700 Descending Atlanta TRACON

Login

Don't have an account? Register now (free) for customized features, flight alerts, and more!